sensor_id;sensor_type;location;lat;lon;timestamp;P1;durP1;ratioP1;P2;durP2;ratioP2
76107;SDS011;64834;52.516;10.528;2023-03-01T00:01:45;12.88;;;6.90;;
76107;SDS011;64834;52.516;10.528;2023-03-01T00:04:11;12.35;;;6.57;;
76107;SDS011;64834;52.516;10.528;2023-03-01T00:06:36;10.77;;;6.80;;
76107;SDS011;64834;52.516;10.528;2023-03-01T00:09:02;11.52;;;6.57;;
76107;SDS011;64834;52.516;10.528;2023-03-01T00:11:28;10.43;;;6.10;;
76107;SDS011;64834;52.516;10.528;2023-03-01T00:13:57;12.55;;;6.28;;
76107;SDS011;64834;52.516;10.528;2023-03-01T00:16:29;9.88;;;6.15;;
76107;SDS011;64834;52.516;10.528;2023-03-01T00:18:58;10.95;;;5.80;;
76107;SDS011;64834;52.516;10.528;2023-03-01T00:21:24;10.70;;;6.35;;
76107;SDS011;64834;52.516;10.528;2023-03-01T00:23:50;11.32;;;6.18;;
76107;SDS011;64834;52.516;10.528;2023-03-01T00:26:18;10.07;;;5.78;;
76107;SDS011;64834;52.516;10.528;2023-03-01T00:28:44;11.52;;;6.20;;
76107;SDS011;64834;52.516;10.528;2023-03-01T00:31:15;8.20;;;5.32;;
76107;SDS011;64834;52.516;10.528;2023-03-01T00:33:42;10.32;;;5.75;;
76107;SDS011;64834;52.516;10.528;2023-03-01T00:36:07;10.27;;;5.55;;
76107;SDS011;64834;52.516;10.528;2023-03-01T00:38:34;11.90;;;5.63;;
76107;SDS011;64834;52.516;10.528;2023-03-01T00:41:05;11.80;;;5.90;;
76107;SDS011;64834;52.516;10.528;2023-03-01T00:43:31;13.52;;;6.40;;
76107;SDS011;64834;52.516;10.528;2023-03-01T00:46:01;12.48;;;6.05;;
76107;SDS011;64834;52.516;10.528;2023-03-01T00:48:31;11.00;;;6.22;;
76107;SDS011;64834;52.516;10.528;2023-03-01T00:50:57;9.85;;;5.00;;
76107;SDS011;64834;52.516;10.528;2023-03-01T00:53:22;11.23;;;5.90;;
76107;SDS011;64834;52.516;10.528;2023-03-01T00:55:47;11.93;;;5.88;;
76107;SDS011;64834;52.516;10.528;2023-03-01T00:58:13;11.70;;;6.07;;
76107;SDS011;64834;52.516;10.528;2023-03-01T01:00:38;14.18;;;6.82;;
76107;SDS011;64834;52.516;10.528;2023-03-01T01:03:03;13.10;;;6.45;;
76107;SDS011;64834;52.516;10.528;2023-03-01T01:05:29;15.40;;;7.30;;
76107;SDS011;64834;52.516;10.528;2023-03-01T01:07:54;10.65;;;6.03;;
76107;SDS011;64834;52.516;10.528;2023-03-01T01:10:19;15.32;;;6.85;;
76107;SDS011;64834;52.516;10.528;2023-03-01T01:12:45;11.90;;;7.05;;
76107;SDS011;64834;52.516;10.528;2023-03-01T01:15:10;13.05;;;6.38;;
76107;SDS011;64834;52.516;10.528;2023-03-01T01:17:38;11.32;;;6.82;;
76107;SDS011;64834;52.516;10.528;2023-03-01T01:20:03;11.60;;;6.88;;
76107;SDS011;64834;52.516;10.528;2023-03-01T01:22:29;11.65;;;5.93;;
76107;SDS011;64834;52.516;10.528;2023-03-01T01:24:54;12.32;;;5.90;;
76107;SDS011;64834;52.516;10.528;2023-03-01T01:27:19;11.93;;;6.28;;
76107;SDS011;64834;52.516;10.528;2023-03-01T01:29:45;12.15;;;6.25;;
76107;SDS011;64834;52.516;10.528;2023-03-01T01:32:10;10.95;;;5.90;;
76107;SDS011;64834;52.516;10.528;2023-03-01T01:34:35;11.20;;;6.15;;
76107;SDS011;64834;52.516;10.528;2023-03-01T01:37:01;10.25;;;5.90;;
76107;SDS011;64834;52.516;10.528;2023-03-01T01:39:27;11.48;;;5.78;;
76107;SDS011;64834;52.516;10.528;2023-03-01T01:41:53;8.80;;;5.53;;
76107;SDS011;64834;52.516;10.528;2023-03-01T01:44:22;10.13;;;5.47;;
76107;SDS011;64834;52.516;10.528;2023-03-01T01:46:50;10.40;;;5.60;;
76107;SDS011;64834;52.516;10.528;2023-03-01T01:49:21;11.57;;;5.60;;
76107;SDS011;64834;52.516;10.528;2023-03-01T01:51:51;10.48;;;5.80;;
76107;SDS011;64834;52.516;10.528;2023-03-01T01:54:29;11.48;;;5.93;;
76107;SDS011;64834;52.516;10.528;2023-03-01T01:57:27;11.50;;;5.55;;
76107;SDS011;64834;52.516;10.528;2023-03-01T01:59:58;12.93;;;5.95;;
76107;SDS011;64834;52.516;10.528;2023-03-01T02:02:25;11.75;;;5.38;;
76107;SDS011;64834;52.516;10.528;2023-03-01T02:04:52;10.65;;;6.18;;
76107;SDS011;64834;52.516;10.528;2023-03-01T02:07:28;8.15;;;4.65;;
76107;SDS011;64834;52.516;10.528;2023-03-01T02:09:55;11.82;;;6.70;;
76107;SDS011;64834;52.516;10.528;2023-03-01T02:12:21;9.98;;;6.22;;
76107;SDS011;64834;52.516;10.528;2023-03-01T02:14:49;12.70;;;7.05;;
76107;SDS011;64834;52.516;10.528;2023-03-01T02:17:15;12.93;;;6.20;;
76107;SDS011;64834;52.516;10.528;2023-03-01T02:22:32;16.80;;;7.55;;
76107;SDS011;64834;52.516;10.528;2023-03-01T02:27:58;13.57;;;8.23;;
76107;SDS011;64834;52.516;10.528;2023-03-01T02:30:28;15.75;;;7.35;;
76107;SDS011;64834;52.516;10.528;2023-03-01T02:32:54;14.75;;;6.88;;
76107;SDS011;64834;52.516;10.528;2023-03-01T02:35:27;13.23;;;7.13;;
76107;SDS011;64834;52.516;10.528;2023-03-01T02:37:55;13.43;;;6.97;;
76107;SDS011;64834;52.516;10.528;2023-03-01T02:40:22;12.65;;;6.82;;
76107;SDS011;64834;52.516;10.528;2023-03-01T02:42:50;12.77;;;6.80;;
76107;SDS011;64834;52.516;10.528;2023-03-01T02:45:18;11.55;;;6.13;;
76107;SDS011;64834;52.516;10.528;2023-03-01T02:47:44;16.67;;;7.43;;
76107;SDS011;64834;52.516;10.528;2023-03-01T02:50:12;12.13;;;6.32;;
76107;SDS011;64834;52.516;10.528;2023-03-01T02:52:56;13.05;;;7.05;;
76107;SDS011;64834;52.516;10.528;2023-03-01T02:55:28;11.18;;;6.07;;
76107;SDS011;64834;52.516;10.528;2023-03-01T02:57:53;12.40;;;7.20;;
76107;SDS011;64834;52.516;10.528;2023-03-01T03:00:22;10.98;;;6.90;;
76107;SDS011;64834;52.516;10.528;2023-03-01T03:02:53;13.48;;;6.60;;
76107;SDS011;64834;52.516;10.528;2023-03-01T03:05:28;11.40;;;6.57;;
76107;SDS011;64834;52.516;10.528;2023-03-01T03:07:55;12.15;;;6.13;;
76107;SDS011;64834;52.516;10.528;2023-03-01T03:10:25;10.20;;;6.20;;
76107;SDS011;64834;52.516;10.528;2023-03-01T03:12:55;11.18;;;5.72;;
76107;SDS011;64834;52.516;10.528;2023-03-01T03:15:28;14.88;;;6.40;;
76107;SDS011;64834;52.516;10.528;2023-03-01T03:17:53;16.10;;;7.38;;
76107;SDS011;64834;52.516;10.528;2023-03-01T03:20:21;11.13;;;6.80;;
76107;SDS011;64834;52.516;10.528;2023-03-01T03:22:49;12.48;;;6.25;;
76107;SDS011;64834;52.516;10.528;2023-03-01T03:25:16;13.48;;;7.18;;
76107;SDS011;64834;52.516;10.528;2023-03-01T03:27:42;15.75;;;7.40;;
76107;SDS011;64834;52.516;10.528;2023-03-01T03:30:10;12.73;;;6.55;;
76107;SDS011;64834;52.516;10.528;2023-03-01T03:32:38;11.77;;;6.30;;
76107;SDS011;64834;52.516;10.528;2023-03-01T03:35:05;12.00;;;6.05;;
76107;SDS011;64834;52.516;10.528;2023-03-01T03:37:35;13.10;;;5.90;;
76107;SDS011;64834;52.516;10.528;2023-03-01T03:40:21;14.07;;;6.93;;
76107;SDS011;64834;52.516;10.528;2023-03-01T03:42:46;12.27;;;6.53;;
76107;SDS011;64834;52.516;10.528;2023-03-01T03:45:13;14.25;;;6.97;;
76107;SDS011;64834;52.516;10.528;2023-03-01T03:47:38;12.88;;;7.18;;
76107;SDS011;64834;52.516;10.528;2023-03-01T03:50:03;14.18;;;6.85;;
76107;SDS011;64834;52.516;10.528;2023-03-01T03:52:29;13.88;;;6.82;;
76107;SDS011;64834;52.516;10.528;2023-03-01T03:54:54;11.63;;;7.10;;
76107;SDS011;64834;52.516;10.528;2023-03-01T03:57:19;12.40;;;6.50;;
76107;SDS011;64834;52.516;10.528;2023-03-01T03:59:46;13.35;;;6.88;;
76107;SDS011;64834;52.516;10.528;2023-03-01T04:02:11;11.95;;;5.90;;
76107;SDS011;64834;52.516;10.528;2023-03-01T04:04:36;14.35;;;7.60;;
76107;SDS011;64834;52.516;10.528;2023-03-01T04:07:02;17.63;;;6.95;;
76107;SDS011;64834;52.516;10.528;2023-03-01T04:09:27;9.93;;;6.53;;
76107;SDS011;64834;52.516;10.528;2023-03-01T04:11:55;12.52;;;6.35;;
76107;SDS011;64834;52.516;10.528;2023-03-01T04:14:20;13.30;;;6.93;;
76107;SDS011;64834;52.516;10.528;2023-03-01T04:16:45;16.50;;;9.18;;
76107;SDS011;64834;52.516;10.528;2023-03-01T04:19:11;13.70;;;7.45;;
76107;SDS011;64834;52.516;10.528;2023-03-01T04:21:36;12.10;;;7.60;;
76107;SDS011;64834;52.516;10.528;2023-03-01T04:24:01;13.70;;;7.03;;
76107;SDS011;64834;52.516;10.528;2023-03-01T04:26:28;12.07;;;7.93;;
76107;SDS011;64834;52.516;10.528;2023-03-01T04:28:53;10.25;;;6.75;;
76107;SDS011;64834;52.516;10.528;2023-03-01T04:31:19;10.05;;;6.18;;
76107;SDS011;64834;52.516;10.528;2023-03-01T04:33:47;11.30;;;7.03;;
76107;SDS011;64834;52.516;10.528;2023-03-01T04:36:16;12.45;;;7.50;;
76107;SDS011;64834;52.516;10.528;2023-03-01T04:38:43;12.93;;;7.28;;
76107;SDS011;64834;52.516;10.528;2023-03-01T04:41:16;12.02;;;6.53;;
76107;SDS011;64834;52.516;10.528;2023-03-01T04:43:44;14.68;;;6.60;;
76107;SDS011;64834;52.516;10.528;2023-03-01T04:46:13;10.68;;;5.88;;
76107;SDS011;64834;52.516;10.528;2023-03-01T04:48:41;11.60;;;5.70;;
76107;SDS011;64834;52.516;10.528;2023-03-01T04:51:08;10.05;;;4.75;;
76107;SDS011;64834;52.516;10.528;2023-03-01T04:53:34;11.75;;;6.07;;
76107;SDS011;64834;52.516;10.528;2023-03-01T04:56:01;12.13;;;6.13;;
76107;SDS011;64834;52.516;10.528;2023-03-01T04:58:27;11.30;;;6.78;;
76107;SDS011;64834;52.516;10.528;2023-03-01T05:00:53;8.77;;;5.57;;
76107;SDS011;64834;52.516;10.528;2023-03-01T05:03:20;11.13;;;5.65;;
76107;SDS011;64834;52.516;10.528;2023-03-01T05:05:47;9.70;;;6.03;;
76107;SDS011;64834;52.516;10.528;2023-03-01T05:08:13;10.75;;;4.93;;
76107;SDS011;64834;52.516;10.528;2023-03-01T05:10:47;10.10;;;5.03;;
76107;SDS011;64834;52.516;10.528;2023-03-01T05:13:14;10.48;;;5.88;;
76107;SDS011;64834;52.516;10.528;2023-03-01T05:15:46;8.82;;;4.82;;
76107;SDS011;64834;52.516;10.528;2023-03-01T05:18:12;8.80;;;4.80;;
76107;SDS011;64834;52.516;10.528;2023-03-01T05:20:38;13.05;;;5.75;;
76107;SDS011;64834;52.516;10.528;2023-03-01T05:23:03;7.57;;;5.25;;
76107;SDS011;64834;52.516;10.528;2023-03-01T05:25:30;14.20;;;6.35;;
76107;SDS011;64834;52.516;10.528;2023-03-01T05:27:58;14.10;;;6.55;;
76107;SDS011;64834;52.516;10.528;2023-03-01T05:30:23;13.50;;;5.80;;
76107;SDS011;64834;52.516;10.528;2023-03-01T05:32:49;10.43;;;5.60;;
76107;SDS011;64834;52.516;10.528;2023-03-01T05:35:20;11.20;;;5.68;;
76107;SDS011;64834;52.516;10.528;2023-03-01T05:37:47;11.32;;;5.75;;
76107;SDS011;64834;52.516;10.528;2023-03-01T05:40:15;11.50;;;5.57;;
76107;SDS011;64834;52.516;10.528;2023-03-01T05:42:47;12.63;;;6.05;;
76107;SDS011;64834;52.516;10.528;2023-03-01T05:45:14;11.75;;;5.97;;
76107;SDS011;64834;52.516;10.528;2023-03-01T05:47:41;12.50;;;5.93;;
76107;SDS011;64834;52.516;10.528;2023-03-01T05:50:13;11.13;;;6.07;;
76107;SDS011;64834;52.516;10.528;2023-03-01T05:52:44;11.60;;;5.53;;
76107;SDS011;64834;52.516;10.528;2023-03-01T05:55:10;13.70;;;5.88;;
76107;SDS011;64834;52.516;10.528;2023-03-01T05:57:35;9.57;;;5.30;;
76107;SDS011;64834;52.516;10.528;2023-03-01T06:00:01;17.40;;;7.22;;
76107;SDS011;64834;52.516;10.528;2023-03-01T06:02:27;17.70;;;8.07;;
76107;SDS011;64834;52.516;10.528;2023-03-01T06:04:52;12.63;;;6.57;;
76107;SDS011;64834;52.516;10.528;2023-03-01T06:07:17;13.57;;;6.75;;
76107;SDS011;64834;52.516;10.528;2023-03-01T06:09:42;13.18;;;7.40;;
76107;SDS011;64834;52.516;10.528;2023-03-01T06:12:08;11.02;;;6.85;;
76107;SDS011;64834;52.516;10.528;2023-03-01T06:14:33;10.57;;;5.72;;
76107;SDS011;64834;52.516;10.528;2023-03-01T06:16:58;13.35;;;6.72;;
76107;SDS011;64834;52.516;10.528;2023-03-01T06:19:24;14.02;;;7.22;;
76107;SDS011;64834;52.516;10.528;2023-03-01T06:21:49;13.50;;;6.22;;
76107;SDS011;64834;52.516;10.528;2023-03-01T06:24:14;12.00;;;5.13;;
76107;SDS011;64834;52.516;10.528;2023-03-01T06:26:40;11.50;;;5.72;;
76107;SDS011;64834;52.516;10.528;2023-03-01T06:29:05;11.10;;;5.00;;
76107;SDS011;64834;52.516;10.528;2023-03-01T06:31:30;12.85;;;5.63;;
76107;SDS011;64834;52.516;10.528;2023-03-01T06:33:56;12.63;;;6.35;;
76107;SDS011;64834;52.516;10.528;2023-03-01T06:36:21;14.52;;;6.18;;
76107;SDS011;64834;52.516;10.528;2023-03-01T06:38:46;11.52;;;6.43;;
76107;SDS011;64834;52.516;10.528;2023-03-01T06:41:12;11.57;;;6.50;;
76107;SDS011;64834;52.516;10.528;2023-03-01T06:43:37;13.65;;;6.10;;
76107;SDS011;64834;52.516;10.528;2023-03-01T06:46:05;12.15;;;5.32;;
76107;SDS011;64834;52.516;10.528;2023-03-01T06:48:32;11.68;;;6.28;;
76107;SDS011;64834;52.516;10.528;2023-03-01T06:50:59;13.50;;;7.07;;
76107;SDS011;64834;52.516;10.528;2023-03-01T06:53:25;15.63;;;7.93;;
76107;SDS011;64834;52.516;10.528;2023-03-01T06:55:57;19.25;;;8.82;;
76107;SDS011;64834;52.516;10.528;2023-03-01T06:58:25;21.88;;;9.57;;
76107;SDS011;64834;52.516;10.528;2023-03-01T07:00:50;18.55;;;9.32;;
76107;SDS011;64834;52.516;10.528;2023-03-01T07:03:15;15.43;;;8.30;;
76107;SDS011;64834;52.516;10.528;2023-03-01T07:05:41;15.05;;;7.88;;
76107;SDS011;64834;52.516;10.528;2023-03-01T07:08:06;16.73;;;8.50;;
76107;SDS011;64834;52.516;10.528;2023-03-01T07:10:31;17.52;;;7.20;;
76107;SDS011;64834;52.516;10.528;2023-03-01T07:12:57;24.17;;;10.93;;
76107;SDS011;64834;52.516;10.528;2023-03-01T07:15:23;20.48;;;10.52;;
76107;SDS011;64834;52.516;10.528;2023-03-01T07:17:49;14.77;;;8.30;;
76107;SDS011;64834;52.516;10.528;2023-03-01T07:20:16;12.02;;;7.85;;
76107;SDS011;64834;52.516;10.528;2023-03-01T07:22:42;17.05;;;8.43;;
76107;SDS011;64834;52.516;10.528;2023-03-01T07:25:08;14.55;;;8.65;;
76107;SDS011;64834;52.516;10.528;2023-03-01T07:27:35;16.65;;;8.02;;
76107;SDS011;64834;52.516;10.528;2023-03-01T07:30:00;13.32;;;8.07;;
76107;SDS011;64834;52.516;10.528;2023-03-01T07:32:25;17.50;;;9.80;;
76107;SDS011;64834;52.516;10.528;2023-03-01T07:34:51;14.57;;;8.32;;
76107;SDS011;64834;52.516;10.528;2023-03-01T07:37:16;15.00;;;8.32;;
76107;SDS011;64834;52.516;10.528;2023-03-01T07:39:41;15.88;;;8.45;;
76107;SDS011;64834;52.516;10.528;2023-03-01T07:42:07;18.30;;;7.63;;
76107;SDS011;64834;52.516;10.528;2023-03-01T07:44:33;21.80;;;8.55;;
76107;SDS011;64834;52.516;10.528;2023-03-01T07:46:59;14.35;;;8.18;;
76107;SDS011;64834;52.516;10.528;2023-03-01T07:49:25;13.40;;;7.95;;
76107;SDS011;64834;52.516;10.528;2023-03-01T07:51:51;12.30;;;6.50;;
76107;SDS011;64834;52.516;10.528;2023-03-01T07:54:16;13.10;;;6.70;;
76107;SDS011;64834;52.516;10.528;2023-03-01T07:56:42;10.60;;;5.68;;
76107;SDS011;64834;52.516;10.528;2023-03-01T07:59:08;9.63;;;5.88;;
76107;SDS011;64834;52.516;10.528;2023-03-01T08:01:34;14.65;;;7.28;;
76107;SDS011;64834;52.516;10.528;2023-03-01T08:03:59;11.95;;;7.07;;
76107;SDS011;64834;52.516;10.528;2023-03-01T08:06:24;10.57;;;6.63;;
76107;SDS011;64834;52.516;10.528;2023-03-01T08:08:49;9.57;;;5.80;;
76107;SDS011;64834;52.516;10.528;2023-03-01T08:11:15;12.50;;;6.63;;
76107;SDS011;64834;52.516;10.528;2023-03-01T08:13:40;8.52;;;4.72;;
76107;SDS011;64834;52.516;10.528;2023-03-01T08:16:07;9.18;;;5.35;;
76107;SDS011;64834;52.516;10.528;2023-03-01T08:18:35;11.68;;;5.30;;
76107;SDS011;64834;52.516;10.528;2023-03-01T08:21:02;6.68;;;4.15;;
76107;SDS011;64834;52.516;10.528;2023-03-01T08:23:28;7.25;;;4.35;;
76107;SDS011;64834;52.516;10.528;2023-03-01T08:25:54;9.50;;;4.32;;
76107;SDS011;64834;52.516;10.528;2023-03-01T08:28:20;7.00;;;4.53;;
76107;SDS011;64834;52.516;10.528;2023-03-01T08:30:45;9.45;;;5.35;;
76107;SDS011;64834;52.516;10.528;2023-03-01T08:33:11;7.22;;;4.38;;
76107;SDS011;64834;52.516;10.528;2023-03-01T08:35:37;10.15;;;4.25;;
76107;SDS011;64834;52.516;10.528;2023-03-01T08:38:02;9.65;;;4.57;;
76107;SDS011;64834;52.516;10.528;2023-03-01T08:40:28;9.32;;;4.38;;
76107;SDS011;64834;52.516;10.528;2023-03-01T08:42:53;9.35;;;4.78;;
76107;SDS011;64834;52.516;10.528;2023-03-01T08:45:18;7.97;;;5.43;;
76107;SDS011;64834;52.516;10.528;2023-03-01T08:47:44;8.15;;;5.35;;
76107;SDS011;64834;52.516;10.528;2023-03-01T08:50:10;8.38;;;4.07;;
76107;SDS011;64834;52.516;10.528;2023-03-01T08:52:35;7.75;;;3.70;;
76107;SDS011;64834;52.516;10.528;2023-03-01T08:55:00;6.28;;;3.95;;
76107;SDS011;64834;52.516;10.528;2023-03-01T08:57:26;6.20;;;4.15;;
76107;SDS011;64834;52.516;10.528;2023-03-01T08:59:52;7.03;;;3.95;;
76107;SDS011;64834;52.516;10.528;2023-03-01T09:02:17;8.18;;;4.60;;
76107;SDS011;64834;52.516;10.528;2023-03-01T09:04:43;6.03;;;3.88;;
76107;SDS011;64834;52.516;10.528;2023-03-01T09:07:09;11.38;;;5.00;;
76107;SDS011;64834;52.516;10.528;2023-03-01T09:09:35;6.97;;;4.00;;
76107;SDS011;64834;52.516;10.528;2023-03-01T09:12:02;7.45;;;4.15;;
76107;SDS011;64834;52.516;10.528;2023-03-01T09:14:27;10.40;;;5.47;;
76107;SDS011;64834;52.516;10.528;2023-03-01T09:16:53;9.60;;;5.05;;
76107;SDS011;64834;52.516;10.528;2023-03-01T09:19:18;8.68;;;4.85;;
76107;SDS011;64834;52.516;10.528;2023-03-01T09:21:44;7.95;;;4.10;;
76107;SDS011;64834;52.516;10.528;2023-03-01T09:24:22;7.43;;;4.50;;
76107;SDS011;64834;52.516;10.528;2023-03-01T09:26:48;6.70;;;4.20;;
76107;SDS011;64834;52.516;10.528;2023-03-01T09:29:14;7.68;;;3.97;;
76107;SDS011;64834;52.516;10.528;2023-03-01T09:31:41;9.07;;;4.22;;
76107;SDS011;64834;52.516;10.528;2023-03-01T09:34:07;7.35;;;4.53;;
76107;SDS011;64834;52.516;10.528;2023-03-01T09:36:33;9.23;;;4.63;;
76107;SDS011;64834;52.516;10.528;2023-03-01T09:38:59;7.47;;;4.00;;
76107;SDS011;64834;52.516;10.528;2023-03-01T09:41:31;6.07;;;3.70;;
76107;SDS011;64834;52.516;10.528;2023-03-01T09:44:16;8.20;;;3.88;;
76107;SDS011;64834;52.516;10.528;2023-03-01T09:46:51;7.20;;;3.95;;
76107;SDS011;64834;52.516;10.528;2023-03-01T09:49:18;6.28;;;3.53;;
76107;SDS011;64834;52.516;10.528;2023-03-01T09:51:51;6.22;;;3.35;;
76107;SDS011;64834;52.516;10.528;2023-03-01T09:54:20;6.43;;;3.70;;
76107;SDS011;64834;52.516;10.528;2023-03-01T09:56:47;6.20;;;3.13;;
76107;SDS011;64834;52.516;10.528;2023-03-01T09:59:39;7.72;;;4.55;;
76107;SDS011;64834;52.516;10.528;2023-03-01T10:02:31;5.15;;;3.00;;
76107;SDS011;64834;52.516;10.528;2023-03-01T10:07:54;5.32;;;3.15;;
76107;SDS011;64834;52.516;10.528;2023-03-01T10:10:34;7.95;;;3.60;;
76107;SDS011;64834;52.516;10.528;2023-03-01T10:13:04;5.68;;;3.67;;
76107;SDS011;64834;52.516;10.528;2023-03-01T10:15:42;5.97;;;2.78;;
76107;SDS011;64834;52.516;10.528;2023-03-01T10:18:14;5.63;;;3.10;;
76107;SDS011;64834;52.516;10.528;2023-03-01T10:20:57;8.15;;;4.20;;
76107;SDS011;64834;52.516;10.528;2023-03-01T10:23:25;8.00;;;3.40;;
76107;SDS011;64834;52.516;10.528;2023-03-01T10:28:25;8.47;;;3.47;;
76107;SDS011;64834;52.516;10.528;2023-03-01T10:30:56;5.25;;;3.00;;
76107;SDS011;64834;52.516;10.528;2023-03-01T10:33:24;5.90;;;2.90;;
76107;SDS011;64834;52.516;10.528;2023-03-01T10:35:58;5.82;;;3.10;;
76107;SDS011;64834;52.516;10.528;2023-03-01T10:38:24;5.72;;;3.00;;
76107;SDS011;64834;52.516;10.528;2023-03-01T10:40:51;6.43;;;3.35;;
76107;SDS011;64834;52.516;10.528;2023-03-01T10:45:57;6.35;;;2.78;;
76107;SDS011;64834;52.516;10.528;2023-03-01T10:48:23;4.43;;;2.70;;
76107;SDS011;64834;52.516;10.528;2023-03-01T10:53:27;5.47;;;2.53;;
76107;SDS011;64834;52.516;10.528;2023-03-01T10:58:39;3.42;;;1.60;;
76107;SDS011;64834;52.516;10.528;2023-03-01T11:01:34;5.47;;;1.67;;
76107;SDS011;64834;52.516;10.528;2023-03-01T11:06:36;2.92;;;1.50;;
76107;SDS011;64834;52.516;10.528;2023-03-01T11:09:22;6.03;;;1.52;;
76107;SDS011;64834;52.516;10.528;2023-03-01T11:11:52;3.75;;;1.80;;
76107;SDS011;64834;52.516;10.528;2023-03-01T11:14:23;4.13;;;1.40;;
76107;SDS011;64834;52.516;10.528;2023-03-01T11:17:00;2.72;;;1.30;;
76107;SDS011;64834;52.516;10.528;2023-03-01T11:19:27;3.42;;;1.60;;
76107;SDS011;64834;52.516;10.528;2023-03-01T11:21:54;3.65;;;1.58;;
76107;SDS011;64834;52.516;10.528;2023-03-01T11:30:03;3.90;;;1.55;;
76107;SDS011;64834;52.516;10.528;2023-03-01T11:35:32;2.90;;;1.08;;
76107;SDS011;64834;52.516;10.528;2023-03-01T11:38:12;3.03;;;1.35;;
76107;SDS011;64834;52.516;10.528;2023-03-01T11:43:28;4.20;;;2.15;;
76107;SDS011;64834;52.516;10.528;2023-03-01T11:46:06;6.03;;;1.45;;
76107;SDS011;64834;52.516;10.528;2023-03-01T11:48:58;2.92;;;1.60;;
76107;SDS011;64834;52.516;10.528;2023-03-01T11:51:51;3.08;;;1.88;;
76107;SDS011;64834;52.516;10.528;2023-03-01T11:54:20;2.10;;;1.13;;
76107;SDS011;64834;52.516;10.528;2023-03-01T11:57:04;2.60;;;1.10;;
76107;SDS011;64834;52.516;10.528;2023-03-01T12:10:50;2.45;;;1.30;;
76107;SDS011;64834;52.516;10.528;2023-03-01T12:16:17;3.80;;;1.42;;
76107;SDS011;64834;52.516;10.528;2023-03-01T12:24:43;3.03;;;1.35;;
76107;SDS011;64834;52.516;10.528;2023-03-01T12:27:22;2.78;;;1.35;;
76107;SDS011;64834;52.516;10.528;2023-03-01T12:30:05;2.97;;;1.42;;
76107;SDS011;64834;52.516;10.528;2023-03-01T12:32:48;2.95;;;1.33;;
76107;SDS011;64834;52.516;10.528;2023-03-01T12:35:50;3.30;;;1.30;;
76107;SDS011;64834;52.516;10.528;2023-03-01T12:39:12;2.13;;;1.10;;
76107;SDS011;64834;52.516;10.528;2023-03-01T12:41:40;3.10;;;1.40;;
76107;SDS011;64834;52.516;10.528;2023-03-01T12:44:15;2.70;;;1.40;;
76107;SDS011;64834;52.516;10.528;2023-03-01T12:49:33;3.28;;;1.27;;
76107;SDS011;64834;52.516;10.528;2023-03-01T12:52:11;3.00;;;1.45;;
76107;SDS011;64834;52.516;10.528;2023-03-01T12:54:41;3.92;;;1.88;;
76107;SDS011;64834;52.516;10.528;2023-03-01T12:57:17;2.80;;;1.67;;
76107;SDS011;64834;52.516;10.528;2023-03-01T13:08:16;3.47;;;1.50;;
76107;SDS011;64834;52.516;10.528;2023-03-01T13:11:00;3.28;;;1.27;;
76107;SDS011;64834;52.516;10.528;2023-03-01T13:13:28;3.40;;;1.55;;
76107;SDS011;64834;52.516;10.528;2023-03-01T13:15:54;3.00;;;1.40;;
76107;SDS011;64834;52.516;10.528;2023-03-01T13:20:50;2.50;;;1.45;;
76107;SDS011;64834;52.516;10.528;2023-03-01T13:31:06;2.83;;;1.55;;
76107;SDS011;64834;52.516;10.528;2023-03-01T13:33:56;2.65;;;1.58;;
76107;SDS011;64834;52.516;10.528;2023-03-01T13:46:48;4.43;;;1.50;;
76107;SDS011;64834;52.516;10.528;2023-03-01T13:49:20;3.35;;;1.52;;
76107;SDS011;64834;52.516;10.528;2023-03-01T13:51:47;3.85;;;1.52;;
76107;SDS011;64834;52.516;10.528;2023-03-01T13:54:15;4.65;;;1.60;;
76107;SDS011;64834;52.516;10.528;2023-03-01T13:56:46;4.10;;;1.85;;
76107;SDS011;64834;52.516;10.528;2023-03-01T13:59:13;3.15;;;1.60;;
76107;SDS011;64834;52.516;10.528;2023-03-01T14:01:40;2.95;;;1.30;;
76107;SDS011;64834;52.516;10.528;2023-03-01T14:04:22;3.47;;;1.50;;
76107;SDS011;64834;52.516;10.528;2023-03-01T14:06:48;2.72;;;1.30;;
76107;SDS011;64834;52.516;10.528;2023-03-01T14:09:23;3.33;;;1.70;;
76107;SDS011;64834;52.516;10.528;2023-03-01T14:14:39;3.72;;;1.70;;
76107;SDS011;64834;52.516;10.528;2023-03-01T14:17:22;2.40;;;1.33;;
76107;SDS011;64834;52.516;10.528;2023-03-01T14:20:17;2.92;;;1.35;;
76107;SDS011;64834;52.516;10.528;2023-03-01T14:22:44;2.97;;;1.98;;
76107;SDS011;64834;52.516;10.528;2023-03-01T14:25:19;3.63;;;1.58;;
76107;SDS011;64834;52.516;10.528;2023-03-01T14:27:55;3.50;;;1.65;;
76107;SDS011;64834;52.516;10.528;2023-03-01T14:30:26;2.70;;;1.60;;
76107;SDS011;64834;52.516;10.528;2023-03-01T14:32:58;3.15;;;1.40;;
76107;SDS011;64834;52.516;10.528;2023-03-01T14:35:27;3.20;;;1.90;;
76107;SDS011;64834;52.516;10.528;2023-03-01T14:37:57;4.57;;;1.70;;
76107;SDS011;64834;52.516;10.528;2023-03-01T14:42:57;3.60;;;1.75;;
76107;SDS011;64834;52.516;10.528;2023-03-01T14:45:26;4.30;;;1.90;;
76107;SDS011;64834;52.516;10.528;2023-03-01T14:50:27;3.28;;;1.25;;
76107;SDS011;64834;52.516;10.528;2023-03-01T14:52:55;2.33;;;1.30;;
76107;SDS011;64834;52.516;10.528;2023-03-01T14:58:12;2.45;;;1.42;;
76107;SDS011;64834;52.516;10.528;2023-03-01T15:00:43;3.53;;;1.70;;
76107;SDS011;64834;52.516;10.528;2023-03-01T15:05:55;2.80;;;1.40;;
76107;SDS011;64834;52.516;10.528;2023-03-01T15:08:23;2.67;;;1.27;;
76107;SDS011;64834;52.516;10.528;2023-03-01T15:11:04;2.72;;;1.60;;
76107;SDS011;64834;52.516;10.528;2023-03-01T15:13:42;2.90;;;1.30;;
76107;SDS011;64834;52.516;10.528;2023-03-01T15:18:53;3.25;;;1.10;;
76107;SDS011;64834;52.516;10.528;2023-03-01T15:21:26;2.83;;;1.40;;
76107;SDS011;64834;52.516;10.528;2023-03-01T15:26:44;3.75;;;1.40;;
76107;SDS011;64834;52.516;10.528;2023-03-01T15:29:23;2.95;;;1.55;;
76107;SDS011;64834;52.516;10.528;2023-03-01T15:32:01;2.63;;;1.27;;
76107;SDS011;64834;52.516;10.528;2023-03-01T15:36:56;3.90;;;1.80;;
76107;SDS011;64834;52.516;10.528;2023-03-01T15:39:30;4.43;;;1.38;;
76107;SDS011;64834;52.516;10.528;2023-03-01T15:47:47;2.60;;;1.30;;
76107;SDS011;64834;52.516;10.528;2023-03-01T15:50:19;3.20;;;1.23;;
76107;SDS011;64834;52.516;10.528;2023-03-01T15:52:46;4.30;;;1.50;;
76107;SDS011;64834;52.516;10.528;2023-03-01T15:57:44;3.40;;;1.90;;
76107;SDS011;64834;52.516;10.528;2023-03-01T16:00:10;3.67;;;2.22;;
76107;SDS011;64834;52.516;10.528;2023-03-01T16:02:38;3.78;;;2.10;;
76107;SDS011;64834;52.516;10.528;2023-03-01T16:05:04;3.63;;;2.10;;
76107;SDS011;64834;52.516;10.528;2023-03-01T16:07:30;4.85;;;3.17;;
76107;SDS011;64834;52.516;10.528;2023-03-01T16:09:56;3.60;;;1.60;;
76107;SDS011;64834;52.516;10.528;2023-03-01T16:12:22;2.88;;;1.70;;
76107;SDS011;64834;52.516;10.528;2023-03-01T16:14:49;4.93;;;2.10;;
76107;SDS011;64834;52.516;10.528;2023-03-01T16:17:14;4.63;;;1.90;;
76107;SDS011;64834;52.516;10.528;2023-03-01T16:19:40;4.28;;;2.63;;
76107;SDS011;64834;52.516;10.528;2023-03-01T16:22:06;8.32;;;3.60;;
76107;SDS011;64834;52.516;10.528;2023-03-01T16:24:31;7.53;;;3.40;;
76107;SDS011;64834;52.516;10.528;2023-03-01T16:26:56;9.75;;;4.93;;
76107;SDS011;64834;52.516;10.528;2023-03-01T16:29:22;13.20;;;5.55;;
76107;SDS011;64834;52.516;10.528;2023-03-01T16:31:47;12.27;;;4.95;;
76107;SDS011;64834;52.516;10.528;2023-03-01T16:34:12;8.75;;;4.78;;